createdAt,value
2023-04-27T00:01:33.342Z,7.31
2023-04-27T00:03:59.891Z,7.35
2023-04-27T00:06:27.405Z,7.32
2023-04-27T00:08:54.001Z,7.30
2023-04-27T00:11:20.363Z,7.31
2023-04-27T00:13:46.948Z,7.30
2023-04-27T00:16:13.450Z,7.30
2023-04-27T00:18:39.876Z,7.30
2023-04-27T00:21:06.360Z,7.25
2023-04-27T00:23:32.708Z,7.21
2023-04-27T00:25:59.254Z,7.21
2023-04-27T00:28:26.038Z,7.19
2023-04-27T00:30:54.514Z,7.19
2023-04-27T00:33:21.478Z,7.20
2023-04-27T00:35:47.827Z,7.16
2023-04-27T00:38:14.353Z,7.15
2023-04-27T00:40:40.885Z,7.06
2023-04-27T00:43:07.239Z,7.04
2023-04-27T00:45:42.018Z,7.06
2023-04-27T00:48:08.849Z,7.00
2023-04-27T00:50:38.702Z,7.02
2023-04-27T00:53:05.863Z,7.06
2023-04-27T00:55:32.215Z,7.09
2023-04-27T00:57:58.601Z,7.06
2023-04-27T01:00:25.058Z,7.04
2023-04-27T01:02:52.415Z,6.95
2023-04-27T01:05:19.549Z,6.97
2023-04-27T01:07:46.073Z,6.90
2023-04-27T01:10:12.633Z,6.93
2023-04-27T01:12:39.056Z,7.01
2023-04-27T01:15:06.704Z,6.94
2023-04-27T01:17:33.077Z,6.95
2023-04-27T01:19:59.622Z,6.93
2023-04-27T01:22:26.707Z,6.95
2023-04-27T01:24:53.666Z,6.99
2023-04-27T01:27:20.015Z,6.97
2023-04-27T01:29:46.590Z,6.84
2023-04-27T01:32:12.960Z,6.72
2023-04-27T01:34:39.356Z,6.74
2023-04-27T01:37:05.993Z,6.70
2023-04-27T01:39:32.533Z,6.78
2023-04-27T01:41:58.953Z,6.75
2023-04-27T01:44:25.343Z,6.77
2023-04-27T01:46:51.793Z,6.78
2023-04-27T01:49:18.158Z,6.76
2023-04-27T01:51:44.495Z,6.69
2023-04-27T01:54:10.956Z,6.64
2023-04-27T01:56:37.343Z,6.69
2023-04-27T01:59:03.717Z,6.72
2023-04-27T02:01:31.379Z,6.66
2023-04-27T02:03:57.951Z,6.69
2023-04-27T02:06:24.444Z,6.71
2023-04-27T02:08:51.702Z,6.72
2023-04-27T02:11:18.038Z,6.69
2023-04-27T02:13:44.373Z,6.63
2023-04-27T02:16:11.079Z,6.65
2023-04-27T02:18:38.444Z,6.69
2023-04-27T02:21:09.424Z,6.68
2023-04-27T02:23:35.814Z,6.66
2023-04-27T02:26:02.496Z,6.62
2023-04-27T02:28:29.143Z,6.59
2023-04-27T02:30:55.894Z,6.57
2023-04-27T02:33:22.228Z,6.60
2023-04-27T02:35:48.568Z,6.59
2023-04-27T02:38:15.724Z,6.67
2023-04-27T02:40:42.243Z,6.65
2023-04-27T02:43:08.610Z,6.71
2023-04-27T02:45:38.341Z,6.59
2023-04-27T02:48:05.077Z,6.52
2023-04-27T02:50:31.607Z,6.53
2023-04-27T02:52:57.979Z,6.44
2023-04-27T02:55:24.381Z,6.48
2023-04-27T02:57:51.367Z,6.51
2023-04-27T03:00:18.853Z,6.46
2023-04-27T03:02:45.426Z,6.50
2023-04-27T03:05:12.828Z,6.54
2023-04-27T03:07:39.376Z,6.56
2023-04-27T03:10:06.112Z,6.58
2023-04-27T03:12:32.468Z,6.44
2023-04-27T03:14:59.712Z,6.38
2023-04-27T03:17:26.206Z,6.33
2023-04-27T03:19:52.877Z,6.22
2023-04-27T03:22:19.264Z,6.24
2023-04-27T03:24:45.680Z,6.21
2023-04-27T03:27:12.243Z,6.19
2023-04-27T03:29:38.575Z,6.15
2023-04-27T03:32:05.354Z,6.11
2023-04-27T03:34:31.914Z,6.18
2023-04-27T03:36:58.409Z,6.14
2023-04-27T03:39:24.947Z,5.98
2023-04-27T03:41:51.320Z,5.92
2023-04-27T03:44:17.659Z,5.91
2023-04-27T03:46:44.029Z,5.93
2023-04-27T03:49:10.524Z,5.91
2023-04-27T03:51:38.337Z,5.90
2023-04-27T03:54:04.929Z,5.92
2023-04-27T03:56:31.292Z,5.92
2023-04-27T03:58:57.658Z,5.88
2023-04-27T04:01:24.884Z,5.88
2023-04-27T04:03:51.709Z,5.90
2023-04-27T04:06:18.208Z,5.85
2023-04-27T04:08:44.587Z,5.72
2023-04-27T04:11:10.933Z,5.67
2023-04-27T04:13:37.503Z,5.76
2023-04-27T04:16:07.922Z,5.81
2023-04-27T04:18:34.776Z,5.78
2023-04-27T04:21:01.434Z,5.77
2023-04-27T04:23:27.866Z,5.70
2023-04-27T04:25:56.555Z,5.69
2023-04-27T04:28:23.632Z,5.67
2023-04-27T04:30:50.362Z,5.64
2023-04-27T04:33:17.456Z,5.57
2023-04-27T04:35:43.881Z,5.58
2023-04-27T04:38:10.693Z,5.59
2023-04-27T04:40:41.734Z,5.52
2023-04-27T04:43:08.760Z,5.54
2023-04-27T04:45:35.116Z,5.57
2023-04-27T04:48:02.276Z,5.49
2023-04-27T04:50:29.029Z,5.49
2023-04-27T04:52:55.777Z,5.51
2023-04-27T04:55:22.372Z,5.56
2023-04-27T04:57:48.744Z,5.51
2023-04-27T05:00:15.232Z,5.44
2023-04-27T05:02:41.870Z,5.49
2023-04-27T05:05:09.131Z,5.51
2023-04-27T05:07:35.504Z,5.48
2023-04-27T05:10:02.175Z,5.28
2023-04-27T05:12:28.508Z,5.22
2023-04-27T05:14:54.868Z,5.29
2023-04-27T05:17:21.509Z,5.40
2023-04-27T05:19:47.872Z,5.38
2023-04-27T05:22:14.209Z,5.44
2023-04-27T05:24:41.065Z,5.32
2023-04-27T05:27:07.518Z,5.39
2023-04-27T05:29:33.905Z,5.50
2023-04-27T05:32:00.598Z,5.43
2023-04-27T05:34:27.077Z,5.47
2023-04-27T05:36:53.439Z,5.42
2023-04-27T05:39:19.962Z,5.46
2023-04-27T05:41:46.442Z,5.49
2023-04-27T05:44:12.803Z,5.52
2023-04-27T05:46:39.215Z,5.52
2023-04-27T05:49:05.662Z,5.56
2023-04-27T05:51:33.169Z,5.53
2023-04-27T05:54:01.964Z,5.55
2023-04-27T05:56:28.439Z,5.61
2023-04-27T05:58:54.792Z,5.69
2023-04-27T06:01:21.932Z,5.70
2023-04-27T06:03:48.476Z,5.71
2023-04-27T06:06:15.116Z,5.77
2023-04-27T06:08:42.319Z,5.73
2023-04-27T06:11:08.694Z,5.79
2023-04-27T06:13:35.237Z,5.80
2023-04-27T06:16:01.765Z,5.89
2023-04-27T06:18:28.306Z,5.93
2023-04-27T06:20:59.702Z,5.93
2023-04-27T06:23:26.066Z,5.98
2023-04-27T06:25:52.472Z,6.00
2023-04-27T06:28:18.996Z,6.06
2023-04-27T06:30:45.341Z,6.15
2023-04-27T06:33:11.729Z,6.19
2023-04-27T06:35:38.193Z,6.21
2023-04-27T06:38:07.345Z,6.15
2023-04-27T06:40:34.181Z,6.21
2023-04-27T06:43:00.724Z,6.21
2023-04-27T06:45:27.104Z,6.23
2023-04-27T06:47:53.909Z,6.25
2023-04-27T06:50:20.730Z,6.29
2023-04-27T06:52:47.112Z,6.38
2023-04-27T06:55:13.459Z,6.46
2023-04-27T06:57:39.858Z,6.49
2023-04-27T07:00:07.029Z,6.50
2023-04-27T07:02:33.551Z,6.56
2023-04-27T07:05:00.165Z,6.63
2023-04-27T07:07:26.765Z,6.63
2023-04-27T07:09:53.358Z,6.73
2023-04-27T07:12:20.076Z,6.76
2023-04-27T07:14:46.530Z,6.84
2023-04-27T07:17:12.960Z,6.87
2023-04-27T07:19:39.321Z,6.92
2023-04-27T07:22:05.726Z,6.94
2023-04-27T07:24:32.327Z,7.03
2023-04-27T07:26:59.280Z,7.03
2023-04-27T07:29:28.311Z,7.11
2023-04-27T07:31:56.103Z,7.19
2023-04-27T07:34:22.736Z,7.29
2023-04-27T07:36:49.165Z,7.51
2023-04-27T07:39:15.805Z,7.52
2023-04-27T07:41:42.394Z,7.44
2023-04-27T07:44:09.390Z,7.39
2023-04-27T07:46:35.724Z,7.45
2023-04-27T07:49:02.294Z,7.44
2023-04-27T07:51:28.953Z,7.47
2023-04-27T07:53:55.610Z,7.51
2023-04-27T07:56:22.039Z,7.48
2023-04-27T07:58:48.596Z,7.44
2023-04-27T08:01:15.003Z,7.44
2023-04-27T08:03:41.559Z,7.50
2023-04-27T08:06:09.005Z,7.65
2023-04-27T08:08:36.260Z,7.75
2023-04-27T08:11:02.650Z,7.74
2023-04-27T08:13:29.199Z,7.76
2023-04-27T08:15:58.515Z,7.78
2023-04-27T08:18:25.851Z,7.74
2023-04-27T08:20:52.661Z,7.89
2023-04-27T08:23:19.083Z,8.06
2023-04-27T08:25:45.528Z,8.14
2023-04-27T08:28:13.195Z,8.13
2023-04-27T08:30:39.548Z,8.02
2023-04-27T08:33:06.229Z,7.98
2023-04-27T08:35:32.814Z,7.87
2023-04-27T08:37:59.162Z,7.80
2023-04-27T08:40:25.698Z,7.80
2023-04-27T08:42:59.447Z,7.78
2023-04-27T08:45:26.707Z,7.96
2023-04-27T08:47:53.231Z,8.15
2023-04-27T08:50:19.690Z,8.37
2023-04-27T08:52:46.756Z,8.67
2023-04-27T08:55:15.105Z,8.74
2023-04-27T08:57:53.130Z,8.75
2023-04-27T09:00:20.260Z,8.70
2023-04-27T09:02:47.279Z,8.56
2023-04-27T09:05:18.401Z,8.47
2023-04-27T09:08:07.990Z,8.34
2023-04-27T09:10:47.561Z,8.38
2023-04-27T09:13:13.942Z,8.37
2023-04-27T09:15:51.538Z,8.44
2023-04-27T09:18:21.939Z,8.62
2023-04-27T09:20:49.562Z,8.70
2023-04-27T09:23:32.307Z,8.74
2023-04-27T09:25:59.904Z,8.72
2023-04-27T09:28:30.870Z,8.78
2023-04-27T09:30:58.799Z,8.84
2023-04-27T09:33:26.515Z,8.87
2023-04-27T09:35:53.271Z,8.94
2023-04-27T09:38:20.512Z,9.21
2023-04-27T09:40:47.141Z,9.43
2023-04-27T09:43:13.482Z,9.59
2023-04-27T09:45:39.919Z,9.58
2023-04-27T09:48:06.436Z,9.38
2023-04-27T09:50:51.640Z,9.25
2023-04-27T09:53:25.285Z,9.14
2023-04-27T09:56:07.103Z,9.15
2023-04-27T09:58:39.419Z,9.11
2023-04-27T10:01:21.510Z,9.23
2023-04-27T10:04:22.290Z,9.41
2023-04-27T10:07:02.240Z,9.65
2023-04-27T10:09:48.157Z,9.60
2023-04-27T10:12:27.719Z,9.82
2023-04-27T10:15:00.908Z,9.86
2023-04-27T10:17:31.738Z,10.10
2023-04-27T10:19:58.974Z,10.36
2023-04-27T10:22:39.880Z,10.41
2023-04-27T10:25:28.758Z,10.29
2023-04-27T10:28:01.124Z,10.04
2023-04-27T10:30:35.909Z,9.91
2023-04-27T10:33:07.575Z,9.88
2023-04-27T10:35:38.158Z,9.83
2023-04-27T10:38:10.912Z,10.18
2023-04-27T10:40:38.124Z,10.52
2023-04-27T10:43:12.377Z,10.82
2023-04-27T10:45:39.007Z,11.00
2023-04-27T10:48:05.733Z,11.13
2023-04-27T10:50:32.338Z,11.19
2023-04-27T10:53:04.090Z,11.26
2023-04-27T10:55:33.450Z,11.02
2023-04-27T10:58:00.234Z,10.73
2023-04-27T11:00:33.574Z,10.63
2023-04-27T11:03:12.146Z,10.64
2023-04-27T11:05:38.761Z,10.64
2023-04-27T11:08:12.421Z,10.70
2023-04-27T11:10:39.453Z,11.30
2023-04-27T11:13:13.040Z,11.71
2023-04-27T11:15:56.091Z,11.71
2023-04-27T11:18:23.934Z,12.80
2023-04-27T11:21:08.226Z,13.13
2023-04-27T11:23:38.457Z,12.50
2023-04-27T11:26:18.104Z,12.19
2023-04-27T11:29:13.854Z,11.98
2023-04-27T11:31:41.831Z,11.99
2023-04-27T11:34:08.241Z,11.84
2023-04-27T11:36:34.577Z,11.57
2023-04-27T11:39:01.227Z,11.38
2023-04-27T11:41:37.387Z,11.57
2023-04-27T11:44:07.724Z,11.67
2023-04-27T11:46:36.530Z,11.85
2023-04-27T11:49:06.918Z,12.07
2023-04-27T11:51:33.632Z,13.46
2023-04-27T11:54:06.663Z,14.28
2023-04-27T11:56:40.640Z,14.42
2023-04-27T11:59:07.151Z,14.62
2023-04-27T12:01:38.115Z,15.13
2023-04-27T12:04:05.211Z,15.96
2023-04-27T12:06:33.782Z,16.51
2023-04-27T12:09:00.857Z,15.88
2023-04-27T12:11:30.135Z,14.85
2023-04-27T12:13:56.776Z,14.42
2023-04-27T12:16:23.312Z,14.14
2023-04-27T12:18:50.205Z,13.70
2023-04-27T12:21:16.682Z,13.40
2023-04-27T12:23:43.301Z,13.28
2023-04-27T12:26:10.017Z,13.42
2023-04-27T12:28:37.168Z,13.39
2023-04-27T12:31:04.190Z,13.21
2023-04-27T12:33:30.760Z,12.92
2023-04-27T12:35:57.102Z,12.95
2023-04-27T12:38:23.700Z,13.89
2023-04-27T12:40:50.368Z,14.56
2023-04-27T12:43:16.751Z,15.28
2023-04-27T12:45:43.330Z,15.25
2023-04-27T12:48:09.686Z,15.71
2023-04-27T12:50:37.624Z,16.07
2023-04-27T12:53:04.070Z,16.06
2023-04-27T12:55:34.207Z,16.30
2023-04-27T12:58:01.704Z,16.04
2023-04-27T13:00:29.438Z,15.96
2023-04-27T13:02:56.595Z,15.97
2023-04-27T13:05:23.298Z,16.43
2023-04-27T13:07:49.711Z,16.41
2023-04-27T13:10:16.198Z,16.30
2023-04-27T13:12:42.656Z,16.87
2023-04-27T13:15:09.599Z,17.06
2023-04-27T13:17:35.976Z,16.96
2023-04-27T13:20:02.506Z,16.60
2023-04-27T13:22:28.907Z,16.62
2023-04-27T13:24:58.168Z,17.18
2023-04-27T13:27:28.413Z,18.23
2023-04-27T13:29:54.803Z,18.98
2023-04-27T13:32:22.075Z,18.77
2023-04-27T13:34:49.132Z,18.41
2023-04-27T13:37:15.529Z,18.19
2023-04-27T13:39:41.871Z,17.74
2023-04-27T13:42:08.336Z,18.18
2023-04-27T13:44:34.718Z,17.95
2023-04-27T13:47:01.114Z,18.05
2023-04-27T13:49:27.713Z,18.42
2023-04-27T13:51:54.093Z,18.49
2023-04-27T13:54:21.344Z,18.79
2023-04-27T13:56:47.953Z,18.41
2023-04-27T13:59:16.024Z,18.42
2023-04-27T14:01:42.712Z,17.94
2023-04-27T14:04:10.113Z,17.90
2023-04-27T14:06:36.661Z,18.49
2023-04-27T14:09:03.099Z,18.20
2023-04-27T14:11:29.903Z,18.23
2023-04-27T14:13:56.450Z,17.67
2023-04-27T14:16:24.330Z,16.92
2023-04-27T14:18:52.223Z,16.15
2023-04-27T14:21:18.584Z,16.08
2023-04-27T14:23:44.964Z,15.87
2023-04-27T14:26:11.383Z,15.44
2023-04-27T14:28:37.747Z,15.33
2023-04-27T14:31:04.126Z,15.07
2023-04-27T14:33:30.677Z,14.72
2023-04-27T14:35:57.052Z,14.60
2023-04-27T14:38:23.426Z,14.56
2023-04-27T14:40:49.791Z,14.57
2023-04-27T14:43:17.826Z,14.29
2023-04-27T14:45:51.659Z,14.51
2023-04-27T14:48:20.857Z,14.68
2023-04-27T14:50:47.457Z,14.72
2023-04-27T14:53:13.845Z,14.77
2023-04-27T14:55:41.082Z,14.29
2023-04-27T14:58:07.657Z,14.22
2023-04-27T15:00:34.011Z,14.45
2023-04-27T15:03:00.467Z,14.25
2023-04-27T15:05:27.054Z,14.30
2023-04-27T15:07:53.397Z,14.41
2023-04-27T15:10:19.772Z,14.53
2023-04-27T15:12:46.445Z,14.24
2023-04-27T15:15:12.998Z,14.17
2023-04-27T15:17:39.390Z,14.09
2023-04-27T15:20:06.747Z,13.87
2023-04-27T15:22:33.235Z,13.87
2023-04-27T15:24:59.722Z,13.64
2023-04-27T15:27:26.301Z,14.40
2023-04-27T15:29:55.579Z,14.39
2023-04-27T15:32:24.456Z,14.32
2023-04-27T15:34:51.781Z,14.41
2023-04-27T15:37:18.353Z,15.07
2023-04-27T15:39:44.775Z,16.19
2023-04-27T15:42:11.350Z,17.34
2023-04-27T15:44:37.711Z,17.94
2023-04-27T15:47:04.596Z,18.48
2023-04-27T15:49:31.239Z,18.52
2023-04-27T15:51:57.643Z,18.26
2023-04-27T15:54:24.081Z,19.01
2023-04-27T15:56:50.608Z,20.17
2023-04-27T15:59:17.219Z,19.79
2023-04-27T16:01:43.682Z,20.38
2023-04-27T16:04:10.269Z,20.89
2023-04-27T16:06:37.061Z,21.54
2023-04-27T16:09:03.644Z,20.66
2023-04-27T16:11:31.226Z,20.58
2023-04-27T16:13:57.767Z,20.54
2023-04-27T16:16:24.205Z,19.83
2023-04-27T16:18:50.898Z,19.36
2023-04-27T16:21:17.241Z,20.49
2023-04-27T16:23:43.635Z,20.27
2023-04-27T16:26:10.221Z,21.32
2023-04-27T16:28:37.025Z,21.89
2023-04-27T16:31:03.400Z,19.98
2023-04-27T16:33:29.799Z,19.72
2023-04-27T16:35:57.211Z,19.64
2023-04-27T16:38:23.623Z,20.57
2023-04-27T16:40:49.996Z,20.36
2023-04-27T16:43:16.397Z,18.44
2023-04-27T16:45:42.884Z,17.07
2023-04-27T16:48:10.485Z,16.10
2023-04-27T16:50:36.917Z,15.28
2023-04-27T16:53:07.301Z,15.03
2023-04-27T16:55:34.451Z,14.96
2023-04-27T16:58:00.945Z,14.90
2023-04-27T17:00:28.167Z,14.83
2023-04-27T17:02:54.827Z,14.62
2023-04-27T17:05:21.519Z,14.34
2023-04-27T17:07:47.968Z,14.47
2023-04-27T17:10:14.601Z,14.42
2023-04-27T17:12:41.114Z,14.27
2023-04-27T17:15:08.366Z,14.23
2023-04-27T17:17:34.893Z,14.11
2023-04-27T17:20:01.459Z,14.08
2023-04-27T17:22:29.612Z,13.80
2023-04-27T17:24:56.051Z,13.67
2023-04-27T17:27:22.425Z,13.61
2023-04-27T17:29:48.821Z,13.49
2023-04-27T17:32:15.284Z,13.52
2023-04-27T17:34:43.057Z,13.46
2023-04-27T17:37:09.590Z,13.32
2023-04-27T17:39:35.983Z,13.27
2023-04-27T17:42:02.640Z,13.22
2023-04-27T17:44:29.094Z,13.19
2023-04-27T17:46:55.904Z,13.19
2023-04-27T17:49:22.406Z,13.14
2023-04-27T17:51:48.906Z,13.09
2023-04-27T17:54:15.249Z,12.87
2023-04-27T17:56:42.682Z,12.69
2023-04-27T17:59:09.294Z,12.63
2023-04-27T18:01:35.985Z,12.54
2023-04-27T18:04:04.566Z,12.40
2023-04-27T18:06:32.061Z,12.23
2023-04-27T18:08:58.510Z,12.11
2023-04-27T18:11:25.075Z,11.99
2023-04-27T18:13:52.465Z,11.87
2023-04-27T18:16:18.812Z,11.72
2023-04-27T18:18:45.192Z,11.61
2023-04-27T18:21:11.717Z,11.51
2023-04-27T18:23:38.124Z,11.46
2023-04-27T18:26:04.496Z,11.35
2023-04-27T18:28:31.019Z,11.27
2023-04-27T18:30:57.364Z,11.21
2023-04-27T18:33:23.703Z,11.21
2023-04-27T18:35:50.585Z,11.14
2023-04-27T18:38:16.930Z,11.01
2023-04-27T18:40:43.320Z,10.89
2023-04-27T18:43:09.990Z,10.77
2023-04-27T18:45:36.448Z,10.67
2023-04-27T18:48:03.028Z,10.59
2023-04-27T18:50:29.452Z,10.56
2023-04-27T18:52:55.938Z,10.55
2023-04-27T18:55:22.623Z,10.51
2023-04-27T18:57:49.069Z,10.48
2023-04-27T19:00:15.707Z,10.39
2023-04-27T19:02:42.214Z,10.35
2023-04-27T19:05:12.929Z,10.31
2023-04-27T19:07:40.093Z,10.25
2023-04-27T19:10:07.045Z,10.20
2023-04-27T19:12:33.502Z,10.12
2023-04-27T19:14:59.846Z,10.05
2023-04-27T19:17:26.768Z,10.02
2023-04-27T19:19:53.514Z,9.99
2023-04-27T19:22:19.878Z,9.93
2023-04-27T19:24:46.241Z,9.94
2023-04-27T19:27:12.774Z,9.89
2023-04-27T19:29:55.863Z,9.89
2023-04-27T19:32:25.159Z,9.88
2023-04-27T19:34:51.552Z,9.90
2023-04-27T19:37:17.924Z,9.84
2023-04-27T19:39:44.311Z,9.77
2023-04-27T19:42:10.688Z,9.70
2023-04-27T19:44:37.038Z,9.62
2023-04-27T19:47:03.454Z,9.57
2023-04-27T19:49:33.355Z,9.49
2023-04-27T19:52:00.139Z,9.40
2023-04-27T19:54:26.530Z,9.34
2023-04-27T19:56:53.287Z,9.28
2023-04-27T19:59:19.714Z,9.31
2023-04-27T20:01:46.536Z,9.27
2023-04-27T20:04:13.216Z,9.29
2023-04-27T20:06:40.741Z,9.24
2023-04-27T20:09:07.399Z,9.23
2023-04-27T20:11:33.748Z,9.15
2023-04-27T20:14:00.144Z,9.13
2023-04-27T20:16:26.660Z,9.09
2023-04-27T20:18:53.029Z,9.03
2023-04-27T20:21:21.332Z,8.99
2023-04-27T20:23:48.067Z,8.92
2023-04-27T20:26:14.457Z,8.87
2023-04-27T20:28:40.837Z,8.79
2023-04-27T20:31:07.327Z,8.76
2023-04-27T20:33:33.725Z,8.75
2023-04-27T20:36:06.707Z,8.69
2023-04-27T20:38:42.984Z,8.64
2023-04-27T20:41:10.428Z,8.64
2023-04-27T20:43:38.982Z,8.59
2023-04-27T20:46:07.365Z,8.51
2023-04-27T20:48:34.227Z,8.46
2023-04-27T20:51:00.743Z,8.39
2023-04-27T20:53:27.193Z,8.41
2023-04-27T20:55:53.597Z,8.42
2023-04-27T20:58:19.963Z,8.39
2023-04-27T21:00:46.419Z,8.36
2023-04-27T21:03:13.184Z,8.30
2023-04-27T21:05:41.102Z,8.23
2023-04-27T21:08:07.651Z,8.09
2023-04-27T21:10:35.448Z,8.01
2023-04-27T21:13:03.953Z,7.95
2023-04-27T21:15:30.662Z,7.87
2023-04-27T21:17:57.099Z,7.83
2023-04-27T21:20:23.503Z,7.79
2023-04-27T21:22:50.125Z,7.76
2023-04-27T21:25:16.541Z,7.72
2023-04-27T21:27:42.936Z,7.66
2023-04-27T21:30:10.162Z,7.60
2023-04-27T21:32:36.587Z,7.54
2023-04-27T21:35:03.025Z,7.50
2023-04-27T21:37:29.561Z,7.45
2023-04-27T21:39:55.929Z,7.39
2023-04-27T21:42:22.260Z,7.35
2023-04-27T21:44:48.797Z,7.34
2023-04-27T21:47:15.158Z,7.32
2023-04-27T21:49:41.541Z,7.28
2023-04-27T21:52:07.924Z,7.25
2023-04-27T21:54:34.312Z,7.24
2023-04-27T21:57:00.755Z,7.28
2023-04-27T21:59:27.116Z,7.29
2023-04-27T22:01:53.637Z,7.29
2023-04-27T22:04:20.433Z,7.27
2023-04-27T22:06:47.311Z,7.25
2023-04-27T22:09:13.930Z,7.27
2023-04-27T22:11:40.325Z,7.23
2023-04-27T22:14:06.836Z,7.19
2023-04-27T22:16:33.298Z,7.21
2023-04-27T22:18:59.698Z,7.25
2023-04-27T22:21:27.532Z,7.24
2023-04-27T22:23:53.875Z,7.17
2023-04-27T22:26:20.320Z,7.18
2023-04-27T22:28:47.466Z,7.16
2023-04-27T22:31:14.069Z,7.20
2023-04-27T22:33:40.568Z,7.17
2023-04-27T22:36:07.409Z,7.07
2023-04-27T22:38:33.749Z,7.13
2023-04-27T22:41:00.094Z,7.17
2023-04-27T22:43:26.738Z,7.15
2023-04-27T22:45:53.076Z,7.15
2023-04-27T22:48:19.419Z,7.11
2023-04-27T22:50:48.289Z,7.08
2023-04-27T22:53:14.653Z,7.04
2023-04-27T22:55:41.021Z,7.01
2023-04-27T22:58:07.415Z,6.98
2023-04-27T23:00:33.756Z,6.92
2023-04-27T23:03:00.360Z,6.87
2023-04-27T23:05:27.198Z,6.77
2023-04-27T23:07:53.548Z,6.74
2023-04-27T23:10:19.932Z,6.63
2023-04-27T23:12:46.487Z,6.69
2023-04-27T23:15:12.890Z,6.67
2023-04-27T23:17:39.274Z,6.70
2023-04-27T23:20:11.175Z,6.68
2023-04-27T23:22:43.848Z,6.70
2023-04-27T23:25:10.634Z,6.67
2023-04-27T23:27:36.974Z,6.64
2023-04-27T23:30:04.236Z,6.60
2023-04-27T23:32:30.650Z,6.63
2023-04-27T23:34:57.012Z,6.64
2023-04-27T23:37:24.244Z,6.60
2023-04-27T23:39:50.879Z,6.59
2023-04-27T23:42:17.288Z,6.55
2023-04-27T23:44:43.780Z,6.55
2023-04-27T23:47:10.223Z,6.59
2023-04-27T23:49:36.595Z,6.54
2023-04-27T23:52:02.967Z,6.57
2023-04-27T23:54:32.681Z,6.54
2023-04-27T23:56:59.024Z,6.54
2023-04-27T23:59:25.425Z,6.58
